Time;durP1;ratioP1;P1;durP2;ratioP2;P2;SDS_P1;SDS_P2;PMS_P1;PMS_P2;Temp;Humidity;BMP_temperature;BMP_pressure;BME280_temperature;BME280_humidity;BME280_pressure;Samples;Min_cycle;Max_cycle;Signal;HPM_P1;HPM_P2
2022/03/28 00:00:38;;;;;;;8.47;4.20;;;;;;;19.58;48.66;101194.00;5031549;28;20176;-60
2022/03/28 00:03:05;;;;;;;10.33;4.70;;;;;;;19.58;48.58;101188.25;5031179;28;20230;-60
2022/03/28 00:05:31;;;;;;;12.83;5.10;;;;;;;19.58;48.36;101182.53;5031168;28;20423;-60
2022/03/28 00:07:56;;;;;;;9.40;5.50;;;;;;;19.58;48.49;101182.53;5031099;28;20415;-60
2022/03/28 00:10:22;;;;;;;9.33;5.00;;;;;;;19.57;48.90;101178.81;5031244;28;20180;-61
2022/03/28 00:12:47;;;;;;;10.60;5.10;;;;;;;19.60;49.04;101180.13;5031069;28;20179;-61
2022/03/28 00:15:13;;;;;;;7.40;4.77;;;;;;;19.57;48.68;101180.88;5031204;28;20525;-61
2022/03/28 00:17:38;;;;;;;9.83;5.23;;;;;;;19.56;48.72;101179.22;5034117;28;20206;-61
2022/03/28 00:20:05;;;;;;;7.57;5.07;;;;;;;19.55;48.71;101175.50;5034613;28;20554;-61
2022/03/28 00:22:31;;;;;;;9.57;5.33;;;;;;;19.56;48.77;101164.91;5034712;28;20188;-61
2022/03/28 00:24:56;;;;;;;10.10;4.87;;;;;;;19.57;49.17;101173.09;5035016;28;20536;-61
2022/03/28 00:27:22;;;;;;;10.40;5.47;;;;;;;19.56;49.18;101168.56;5033487;28;20157;-61
2022/03/28 00:29:48;;;;;;;9.50;5.00;;;;;;;19.55;48.95;101166.91;5034333;28;20664;-60
2022/03/28 00:32:13;;;;;;;9.13;5.37;;;;;;;19.58;48.93;101163.34;5034899;28;20437;-60
2022/03/28 00:34:40;;;;;;;8.53;5.17;;;;;;;19.55;49.21;101164.06;5035030;28;20187;-60
2022/03/28 00:37:06;;;;;;;7.90;5.10;;;;;;;19.55;48.91;101161.19;5034471;28;20230;-60
2022/03/28 00:39:32;;;;;;;7.93;5.40;;;;;;;19.58;49.15;101166.19;5034986;28;20447;-60
2022/03/28 00:41:57;;;;;;;8.60;4.53;;;;;;;19.58;48.97;101163.34;5034345;28;20236;-60
2022/03/28 00:44:23;;;;;;;8.63;4.43;;;;;;;19.57;49.15;101164.50;5034873;28;20184;-60
2022/03/28 00:46:48;;;;;;;8.90;4.77;;;;;;;19.55;49.19;101166.91;5034370;28;20741;-60
2022/03/28 00:49:14;;;;;;;9.90;5.07;;;;;;;19.56;49.13;101162.84;5034946;28;20661;-60
2022/03/28 00:51:39;;;;;;;11.37;4.73;;;;;;;19.57;49.14;101163.69;5034609;28;20275;-60
2022/03/28 00:54:05;;;;;;;7.33;4.60;;;;;;;19.59;49.01;101162.13;5016931;28;20542;-60
2022/03/28 00:56:31;;;;;;;6.10;4.30;;;;;;;19.57;49.07;101164.50;5033444;28;20661;-60
2022/03/28 00:58:58;;;;;;;10.97;4.13;;;;;;;19.56;49.28;101164.91;5034506;28;20227;-60
2022/03/28 01:01:25;;;;;;;11.30;5.37;;;;;;;19.56;49.43;101165.72;5034378;28;20210;-60
2022/03/28 01:03:50;;;;;;;7.83;4.40;;;;;;;19.56;48.66;101165.72;5034371;28;20407;-60
2022/03/28 01:06:16;;;;;;;9.63;4.77;;;;;;;19.56;49.15;101159.97;5033786;28;20418;-60
2022/03/28 01:08:42;;;;;;;10.50;5.43;;;;;;;19.57;48.85;101164.50;5034564;28;20176;-60
2022/03/28 01:11:09;;;;;;;9.30;4.90;;;;;;;19.57;49.23;101161.63;5033983;28;21252;-60
2022/03/28 01:13:36;;;;;;;8.00;4.47;;;;;;;19.56;49.71;101156.31;5034032;28;20168;-60
2022/03/28 01:16:02;;;;;;;8.73;4.50;;;;;;;19.55;49.35;101149.72;5033958;28;20510;-60
2022/03/28 01:18:27;;;;;;;7.07;4.80;;;;;;;19.54;49.46;101148.06;5033969;28;20561;-60
2022/03/28 01:20:55;;;;;;;7.10;4.63;;;;;;;19.54;49.68;101153.81;5033860;28;20693;-61
2022/03/28 01:23:20;;;;;;;10.57;5.30;;;;;;;19.54;49.41;101148.06;5033377;28;20648;-61
2022/03/28 01:25:45;;;;;;;7.67;4.57;;;;;;;19.54;49.41;101142.34;5032581;28;20439;-61
2022/03/28 01:28:11;;;;;;;8.67;4.50;;;;;;;19.54;49.51;101148.06;4999985;28;20172;-61
2022/03/28 01:30:36;;;;;;;11.17;4.63;;;;;;;19.55;49.86;101146.03;5033847;28;20183;-61
2022/03/28 01:33:02;;;;;;;8.70;4.67;;;;;;;19.55;49.50;101141.13;5033259;28;20172;-61
2022/03/28 01:35:35;;;;;;;6.77;4.50;;;;;;;19.56;49.65;101148.53;5033449;28;20306;-61
2022/03/28 01:38:11;;;;;;;6.90;5.40;;;;;;;19.55;49.38;101140.28;5033059;28;20208;-61
2022/03/28 01:40:39;;;;;;;9.20;4.60;;;;;;;19.54;49.48;101142.34;5033370;28;20419;-60
2022/03/28 01:43:04;;;;;;;8.10;5.10;;;;;;;19.54;49.39;101141.50;5033486;28;20431;-60
2022/03/28 01:45:30;;;;;;;5.80;4.17;;;;;;;19.52;49.72;101143.91;5033398;28;20439;-60
2022/03/28 01:47:55;;;;;;;6.20;4.30;;;;;;;19.52;50.17;101144.72;5033383;28;20239;-60
2022/03/28 01:50:21;;;;;;;7.87;4.23;;;;;;;19.51;49.73;101136.53;5033326;28;20643;-61
2022/03/28 01:52:46;;;;;;;7.93;4.33;;;;;;;19.49;49.90;101131.16;5033113;28;20173;-61
2022/03/28 01:55:12;;;;;;;6.43;4.37;;;;;;;19.51;49.81;101134.47;5032968;28;20176;-61
2022/03/28 01:57:38;;;;;;;6.63;4.67;;;;;;;19.51;49.85;101131.59;5032869;28;20196;-61
2022/03/28 02:00:08;;;;;;;6.70;4.30;;;;;;;19.52;49.71;101133.28;5031940;28;20631;-61
2022/03/28 02:02:33;;;;;;;7.30;3.90;;;;;;;19.49;49.65;101134.03;5032977;28;20454;-61
2022/03/28 02:04:59;;;;;;;7.27;4.43;;;;;;;19.50;49.64;101132.81;5033171;28;20415;-61
2022/03/28 02:07:25;;;;;;;6.47;4.47;;;;;;;19.51;49.97;101136.53;5033178;28;20173;-61
2022/03/28 02:09:50;;;;;;;5.83;4.03;;;;;;;19.51;49.95;101125.88;5033001;28;20172;-61
2022/03/28 02:12:16;;;;;;;6.70;4.17;;;;;;;19.48;49.90;101132.38;5032971;28;20181;-61
2022/03/28 02:14:41;;;;;;;7.07;4.20;;;;;;;19.51;50.00;101125.88;5033095;28;20534;-61
2022/03/28 02:17:06;;;;;;;6.80;4.17;;;;;;;19.50;49.84;101126.25;5031356;28;20200;-61
2022/03/28 02:19:32;;;;;;;7.30;4.40;;;;;;;19.50;49.98;101124.22;5032368;28;20607;-61
2022/03/28 02:21:58;;;;;;;7.43;4.50;;;;;;;19.49;49.78;101122.56;5031941;28;20180;-61
2022/03/28 02:24:23;;;;;;;7.23;4.30;;;;;;;19.51;49.77;101130.78;5031424;28;20173;-61
2022/03/28 02:26:48;;;;;;;9.30;4.43;;;;;;;19.46;50.10;101123.28;5032517;28;20251;-60
2022/03/28 02:29:14;;;;;;;6.67;3.90;;;;;;;19.48;49.86;101122.94;5032132;28;20176;-60
2022/03/28 02:31:39;;;;;;;7.20;4.57;;;;;;;19.47;49.92;101116.34;5032619;28;20696;-60
2022/03/28 02:34:05;;;;;;;5.17;3.87;;;;;;;19.47;49.87;101116.34;5033022;28;20219;-60
2022/03/28 02:36:30;;;;;;;9.80;4.40;;;;;;;19.48;49.78;101114.34;5032530;28;20204;-60
2022/03/28 02:38:56;;;;;;;8.00;4.07;;;;;;;19.48;50.26;101106.59;5032075;28;20248;-60
2022/03/28 02:41:21;;;;;;;7.77;4.27;;;;;;;19.46;49.96;101108.97;5032431;28;20177;-60
2022/03/28 02:43:46;;;;;;;5.80;4.23;;;;;;;19.47;49.99;101115.53;5032590;28;20173;-61
2022/03/28 02:46:12;;;;;;;6.43;4.10;;;;;;;19.46;49.94;101111.84;5032075;28;20224;-61
2022/03/28 02:48:37;;;;;;;6.53;4.13;;;;;;;19.47;50.00;101109.81;5032294;28;20234;-61
2022/03/28 02:51:03;;;;;;;7.80;3.80;;;;;;;19.45;50.02;101110.19;5032092;28;20669;-61
2022/03/28 02:53:28;;;;;;;6.27;4.20;;;;;;;19.45;50.04;101103.59;5031881;28;20631;-61
2022/03/28 02:55:54;;;;;;;7.10;4.53;;;;;;;19.46;50.33;101105.28;5032116;28;20211;-61
2022/03/28 02:58:19;;;;;;;7.83;4.57;;;;;;;19.46;50.03;101108.97;5032082;28;20255;-61
2022/03/28 03:00:45;;;;;;;6.67;3.80;;;;;;;19.45;50.04;101098.72;5032192;28;20227;-61
2022/03/28 03:03:10;;;;;;;7.70;4.50;;;;;;;19.44;50.22;101096.22;5032071;28;20177;-61
2022/03/28 03:05:36;;;;;;;6.83;3.80;;;;;;;19.45;50.02;101098.72;5031914;28;20173;-61
2022/03/28 03:08:02;;;;;;;6.03;3.60;;;;;;;19.44;50.15;101096.22;5031783;28;20172;-61
2022/03/28 03:10:27;;;;;;;7.13;4.33;;;;;;;19.45;50.10;101093.00;5031940;28;20941;-61
2022/03/28 03:12:53;;;;;;;6.97;4.17;;;;;;;19.44;50.13;101084.75;5032218;28;20185;-61
2022/03/28 03:15:18;;;;;;;7.57;3.90;;;;;;;19.44;50.46;101093.34;5032008;28;20220;-61
2022/03/28 03:17:44;;;;;;;5.60;3.67;;;;;;;19.44;50.23;101097.06;5031616;28;20663;-61
2022/03/28 03:20:10;;;;;;;5.67;3.83;;;;;;;19.47;50.12;101092.63;5031579;28;20168;-61
2022/03/28 03:22:35;;;;;;;6.93;4.17;;;;;;;19.44;50.16;101097.06;5032173;28;20506;-61
2022/03/28 03:25:01;;;;;;;5.07;3.60;;;;;;;19.44;50.35;101097.06;5031112;28;20423;-61
2022/03/28 03:27:26;;;;;;;7.60;4.40;;;;;;;19.44;50.26;101102.78;5031121;28;20175;-61
2022/03/28 03:29:52;;;;;;;7.50;4.07;;;;;;;19.43;50.23;101092.53;5030674;28;20534;-61
2022/03/28 03:32:18;;;;;;;5.43;3.73;;;;;;;19.43;50.36;101095.41;5031426;28;20183;-61
2022/03/28 03:34:44;;;;;;;8.30;4.10;;;;;;;19.44;50.27;101087.63;5031012;28;20427;-61
2022/03/28 03:37:09;;;;;;;4.67;3.47;;;;;;;19.43;50.18;101092.53;5031387;28;20200;-61
2022/03/28 03:39:35;;;;;;;5.37;3.90;;;;;;;19.45;50.06;101095.84;5031668;28;20175;-61
2022/03/28 03:42:00;;;;;;;5.13;3.70;;;;;;;19.45;50.41;101098.72;5031442;28;20176;-61
2022/03/28 03:44:26;;;;;;;6.63;4.10;;;;;;;19.44;50.28;101097.06;5031562;28;20415;-61
2022/03/28 03:46:51;;;;;;;7.70;4.40;;;;;;;19.46;50.13;101097.50;5030772;28;20220;-61
2022/03/28 03:49:17;;;;;;;5.40;3.57;;;;;;;19.45;50.22;101106.47;5031193;28;20171;-61
2022/03/28 03:51:42;;;;;;;5.50;3.30;;;;;;;19.45;49.91;101104.44;5030470;28;20177;-61
2022/03/28 03:54:08;;;;;;;7.33;3.90;;;;;;;19.45;50.10;101103.59;5030730;28;20187;-61
2022/03/28 03:56:33;;;;;;;5.90;3.60;;;;;;;19.44;50.35;101099.94;5030049;28;20761;-61
2022/03/28 03:58:58;;;;;;;6.10;3.90;;;;;;;19.43;50.39;101106.88;5031537;28;20156;-61
2022/03/28 04:01:26;;;;;;;6.63;4.10;;;;;;;19.43;50.43;101094.56;5031403;28;20168;-60
2022/03/28 04:03:51;;;;;;;5.70;4.00;;;;;;;19.44;50.07;101102.78;5031101;28;20677;-60
2022/03/28 04:06:16;;;;;;;6.43;3.83;;;;;;;19.43;50.34;101106.88;5031155;28;20411;-60
2022/03/28 04:08:42;;;;;;;7.70;4.20;;;;;;;19.43;50.36;101115.44;5031377;28;20176;-60
2022/03/28 04:11:08;;;;;;;5.93;3.60;;;;;;;19.45;50.27;101106.47;5031297;28;20168;-61
2022/03/28 04:13:33;;;;;;;5.93;3.97;;;;;;;19.42;50.28;101104.34;5031145;28;20192;-61
2022/03/28 04:16:00;;;;;;;8.13;4.23;;;;;;;19.43;50.35;101112.59;5030989;28;20184;-60
2022/03/28 04:18:25;;;;;;;7.03;3.87;;;;;;;19.43;50.17;101106.88;5031091;28;20605;-60
2022/03/28 04:20:52;;;;;;;5.13;3.40;;;;;;;19.42;50.26;101116.63;5030982;28;20424;-60
2022/03/28 04:23:18;;;;;;;5.40;3.33;;;;;;;19.43;50.24;101109.72;5031443;28;20544;-61
2022/03/28 04:25:43;;;;;;;7.07;4.20;;;;;;;19.43;50.25;101118.31;5030807;28;20411;-61
2022/03/28 04:28:09;;;;;;;6.40;3.10;;;;;;;19.44;50.34;101099.09;5031450;28;20157;-61
2022/03/28 04:30:34;;;;;;;5.90;3.40;;;;;;;19.45;50.35;101112.19;5031143;28;20538;-61
2022/03/28 04:33:00;;;;;;;4.80;3.70;;;;;;;19.43;50.36;101108.88;5031034;28;20516;-61
2022/03/28 04:35:25;;;;;;;5.60;3.47;;;;;;;19.41;50.43;101109.25;5030410;28;20176;-61
2022/03/28 04:37:51;;;;;;;4.90;3.57;;;;;;;19.42;50.17;101104.34;5029293;28;20664;-61
2022/03/28 04:40:17;;;;;;;5.43;3.80;;;;;;;19.42;50.95;101104.34;5030680;28;20514;-60
2022/03/28 04:42:43;;;;;;;6.50;3.80;;;;;;;19.40;50.31;101104.72;5031119;28;20588;-60
2022/03/28 04:45:08;;;;;;;5.20;3.30;;;;;;;19.42;50.75;101101.50;5030663;28;20706;-60
2022/03/28 04:47:34;;;;;;;6.07;4.07;;;;;;;19.41;50.34;101109.25;5012936;28;20521;-60
2022/03/28 04:49:59;;;;;;;4.90;3.80;;;;;;;19.43;50.28;101106.88;5030056;28;20177;-60
2022/03/28 04:52:25;;;;;;;5.50;3.23;;;;;;;19.44;50.27;101105.66;5030537;28;20179;-60
2022/03/28 04:54:51;;;;;;;5.80;3.90;;;;;;;19.42;50.55;101107.22;5030149;28;20173;-60
2022/03/28 04:57:16;;;;;;;5.80;3.97;;;;;;;19.43;50.51;101111.75;5030979;28;20243;-60
2022/03/28 04:59:42;;;;;;;6.00;4.13;;;;;;;19.42;50.66;101098.63;5031040;28;20419;-60
2022/03/28 05:02:07;;;;;;;5.07;3.87;;;;;;;19.40;50.25;101107.59;5030849;28;20640;-60
2022/03/28 05:04:33;;;;;;;6.37;3.67;;;;;;;19.41;50.40;101108.44;5033845;28;20230;-60
2022/03/28 05:06:58;;;;;;;4.47;3.13;;;;;;;19.42;50.49;101102.31;5034377;28;20176;-60
2022/03/28 05:09:24;;;;;;;5.80;4.07;;;;;;;19.41;50.45;101114.97;5034122;28;20206;-60
2022/03/28 05:11:49;;;;;;;4.33;3.43;;;;;;;19.40;50.33;101113.31;5034717;28;20180;-60
2022/03/28 05:14:15;;;;;;;6.77;3.90;;;;;;;19.42;50.53;101104.34;5034116;28;20177;-60
2022/03/28 05:16:40;;;;;;;4.80;3.43;;;;;;;19.40;50.49;101106.75;5033967;28;20189;-60
2022/03/28 05:19:06;;;;;;;5.10;3.40;;;;;;;19.40;50.27;101113.31;5034000;28;20183;-60
2022/03/28 05:21:31;;;;;;;4.80;3.37;;;;;;;19.42;50.23;101110.09;5033847;28;20179;-60
2022/03/28 05:23:57;;;;;;;7.80;3.67;;;;;;;19.40;50.53;101113.31;5033915;28;20625;-60
2022/03/28 05:26:22;;;;;;;4.47;2.93;;;;;;;19.37;50.42;101108.31;5034249;28;20222;-60
2022/03/28 05:28:48;;;;;;;5.50;3.60;;;;;;;19.38;50.52;101110.00;5034215;28;20347;-60
2022/03/28 05:31:13;;;;;;;5.60;4.00;;;;;;;19.38;50.48;101104.28;5033191;28;20659;-60
2022/03/28 05:33:38;;;;;;;5.30;3.53;;;;;;;19.38;50.62;101107.13;5033241;28;20176;-60
2022/03/28 05:36:04;;;;;;;5.97;3.83;;;;;;;19.39;50.72;101110.81;5033871;28;20180;-60
2022/03/28 05:38:30;;;;;;;5.63;3.60;;;;;;;19.39;50.47;101113.66;5033971;28;20180;-60
2022/03/28 05:40:57;;;;;;;5.27;3.80;;;;;;;19.37;50.82;101107.50;5033201;28;20247;-60
2022/03/28 05:43:23;;;;;;;4.83;3.53;;;;;;;19.41;50.59;101105.56;5033550;28;20185;-60
2022/03/28 05:45:49;;;;;;;4.80;3.33;;;;;;;19.39;50.48;101116.53;5032530;28;20497;-60
2022/03/28 05:48:14;;;;;;;4.93;3.33;;;;;;;19.39;50.51;101117.38;5033455;28;20904;-60
2022/03/28 05:50:40;;;;;;;5.30;3.50;;;;;;;19.39;50.46;101111.66;5033250;28;20177;-60
2022/03/28 05:53:05;;;;;;;5.67;3.20;;;;;;;19.37;50.61;101114.03;5033384;28;20157;-60
2022/03/28 05:55:32;;;;;;;5.77;3.50;;;;;;;19.37;50.31;101113.22;5031397;28;20165;-60
2022/03/28 05:57:57;;;;;;;5.17;3.33;;;;;;;19.37;50.53;101116.09;5033038;28;20204;-61
2022/03/28 06:00:23;;;;;;;5.23;3.53;;;;;;;19.39;50.41;101111.66;5033093;28;20521;-60
2022/03/28 06:02:48;;;;;;;4.30;3.30;;;;;;;19.39;50.39;101117.38;5033050;28;20177;-60
2022/03/28 06:05:14;;;;;;;4.07;3.13;;;;;;;19.38;50.59;101114.88;5033108;28;20201;-60
2022/03/28 06:07:40;;;;;;;5.20;3.80;;;;;;;19.39;50.25;101108.78;5033465;28;20623;-60
2022/03/28 06:10:05;;;;;;;5.33;3.13;;;;;;;19.37;50.41;101114.03;5033039;28;20180;-60
2022/03/28 06:12:31;;;;;;;5.53;3.37;;;;;;;19.38;50.49;101118.59;5033228;28;20168;-60
2022/03/28 06:14:56;;;;;;;4.43;3.30;;;;;;;19.40;50.22;101110.44;5032140;28;20179;-60
2022/03/28 06:17:26;;;;;;;6.70;4.00;;;;;;;19.37;50.70;101114.03;5032680;28;20605;-60
2022/03/28 06:19:51;;;;;;;6.10;3.53;;;;;;;19.37;50.67;101116.09;5032786;28;20252;-60
2022/03/28 06:22:17;;;;;;;5.47;3.40;;;;;;;19.38;50.48;101112.84;5032847;28;20562;-60
2022/03/28 06:24:43;;;;;;;6.30;3.40;;;;;;;19.37;50.50;101119.75;5033110;28;20646;-60
2022/03/28 06:27:08;;;;;;;4.73;3.50;;;;;;;19.37;50.89;101114.03;5032573;28;20171;-60
2022/03/28 06:29:34;;;;;;;4.53;3.10;;;;;;;19.37;50.49;101114.03;5032583;28;20601;-60
2022/03/28 06:31:59;;;;;;;3.93;3.10;;;;;;;19.36;50.64;101106.66;5032320;28;20239;-61
2022/03/28 06:34:25;;;;;;;4.60;3.70;;;;;;;19.36;50.63;101118.09;5032473;28;20172;-61
2022/03/28 06:36:50;;;;;;;4.23;2.83;;;;;;;19.36;50.71;101115.25;5032549;28;20643;-61
2022/03/28 06:39:16;;;;;;;8.33;3.97;;;;;;;19.35;50.49;101115.59;5032692;28;20647;-61
2022/03/28 06:41:41;;;;;;;5.73;3.43;;;;;;;19.37;50.43;101113.22;5032573;28;20670;-61
2022/03/28 06:44:13;;;;;;;5.43;3.23;;;;;;;19.35;50.37;101110.72;5032819;28;20177;-60
2022/03/28 06:46:40;;;;;;;5.00;3.27;;;;;;;19.38;50.40;101110.00;5032080;28;20246;-61
2022/03/28 06:49:06;;;;;;;5.20;2.93;;;;;;;19.37;50.48;101116.09;5032692;28;20411;-61
2022/03/28 06:51:32;;;;;;;6.30;3.13;;;;;;;19.39;50.48;101108.78;5032243;28;20525;-61
2022/03/28 06:53:58;;;;;;;4.60;3.50;;;;;;;19.36;50.79;101106.66;5030719;28;20251;-61
2022/03/28 06:56:23;;;;;;;6.90;3.37;;;;;;;19.36;50.58;101108.69;5031077;28;20446;-61
2022/03/28 06:58:49;;;;;;;4.70;3.50;;;;;;;19.39;50.97;101105.94;5032251;28;20522;-60
2022/03/28 07:01:14;;;;;;;4.40;3.20;;;;;;;19.37;50.64;101107.50;5031737;28;20180;-60
2022/03/28 07:03:40;;;;;;;3.87;2.83;;;;;;;19.39;50.48;101114.50;5032483;28;20188;-61
2022/03/28 07:06:05;;;;;;;5.23;3.53;;;;;;;19.38;50.37;101120.59;5031972;28;20175;-61
2022/03/28 07:08:31;;;;;;;5.13;3.10;;;;;;;19.36;50.48;101120.97;5032043;28;20167;-60
2022/03/28 07:10:58;;;;;;;5.37;3.43;;;;;;;19.39;50.36;101116.53;5031936;28;20177;-60
2022/03/28 07:13:23;;;;;;;5.10;3.10;;;;;;;19.38;50.30;101114.88;5030874;28;20172;-60
2022/03/28 07:15:49;;;;;;;4.50;3.33;;;;;;;19.38;50.48;101106.28;5031218;28;20427;-60
2022/03/28 07:18:14;;;;;;;5.23;3.40;;;;;;;19.35;50.45;101102.13;5031764;28;20192;-60
2022/03/28 07:20:40;;;;;;;6.00;3.23;;;;;;;19.36;50.59;101105.84;5031374;28;20526;-61
2022/03/28 07:23:05;;;;;;;4.17;2.90;;;;;;;19.35;50.75;101102.13;5031300;28;20585;-61
2022/03/28 07:25:31;;;;;;;3.63;2.60;;;;;;;19.38;50.33;101107.13;5013376;28;20572;-61
2022/03/28 07:27:57;;;;;;;5.50;3.20;;;;;;;19.38;50.83;101110.00;5031073;28;20168;-61
2022/03/28 07:30:22;;;;;;;4.60;3.10;;;;;;;19.37;50.82;101108.31;5031699;28;20176;-61
2022/03/28 07:32:50;;;;;;;5.40;3.17;;;;;;;19.37;50.72;101108.31;5031797;28;20459;-60
2022/03/28 07:35:17;;;;;;;4.00;3.00;;;;;;;19.37;50.68;101105.44;5031589;28;20537;-60
2022/03/28 07:37:43;;;;;;;5.60;3.30;;;;;;;19.37;50.90;101093.19;5031235;28;20888;-60
2022/03/28 07:40:09;;;;;;;4.30;3.00;;;;;;;19.36;50.57;101095.19;5031659;28;20776;-60
2022/03/28 07:42:35;;;;;;;5.83;3.07;;;;;;;19.36;50.33;101100.09;5031747;28;20172;-60
2022/03/28 07:45:01;;;;;;;3.80;3.00;;;;;;;19.36;50.45;101102.97;5030241;28;20960;-60
2022/03/28 07:47:27;;;;;;;4.17;3.40;;;;;;;19.35;50.32;101093.53;5030175;28;20303;-60
2022/03/28 07:49:53;;;;;;;4.20;2.93;;;;;;;19.38;50.84;101097.69;5031374;28;20498;-60
2022/03/28 07:52:19;;;;;;;4.63;3.33;;;;;;;19.37;50.50;101096.03;5013083;28;20558;-60
2022/03/28 07:54:44;;;;;;;4.73;3.37;;;;;;;19.37;50.41;101090.31;5030643;28;20256;-60
2022/03/28 07:57:11;;;;;;;4.60;3.40;;;;;;;19.36;50.41;101097.25;5031017;28;20211;-60
2022/03/28 07:59:37;;;;;;;5.27;3.10;;;;;;;19.35;50.72;101092.69;5031470;28;20223;-60
2022/03/28 08:02:03;;;;;;;4.30;3.27;;;;;;;19.35;50.63;101093.53;5031275;28;20435;-60
2022/03/28 08:04:29;;;;;;;4.47;3.57;;;;;;;19.34;50.52;101091.03;5031535;28;20407;-60
2022/03/28 08:06:55;;;;;;;4.67;3.27;;;;;;;19.37;50.56;101073.94;5030511;28;20172;-60
2022/03/28 08:09:20;;;;;;;5.07;3.40;;;;;;;19.35;50.41;101073.50;5030012;28;20425;-60
2022/03/28 08:11:46;;;;;;;4.47;3.10;;;;;;;19.36;50.64;101071.47;5030853;28;20693;-60
2022/03/28 08:14:11;;;;;;;5.40;3.17;;;;;;;19.33;50.67;101067.31;5031211;28;20174;-60
2022/03/28 08:16:37;;;;;;;4.80;3.40;;;;;;;19.35;50.56;101064.91;5031028;28;20212;-60
2022/03/28 08:19:03;;;;;;;5.43;3.27;;;;;;;19.36;50.39;101065.75;5031327;28;20262;-60
2022/03/28 08:21:29;;;;;;;3.73;2.80;;;;;;;19.36;50.25;101060.03;5030814;28;20183;-60
2022/03/28 08:23:55;;;;;;;4.63;3.03;;;;;;;19.34;50.48;101062.41;5030664;28;20420;-60
2022/03/28 08:26:20;;;;;;;4.47;3.40;;;;;;;19.37;50.38;101061.69;5030938;28;20434;-60
2022/03/28 08:28:46;;;;;;;4.53;3.07;;;;;;;19.34;50.56;101054.66;5031333;28;20227;-60
2022/03/28 08:31:12;;;;;;;4.00;2.90;;;;;;;19.34;50.66;101063.25;5030366;28;20220;-60
2022/03/28 08:33:37;;;;;;;3.53;2.60;;;;;;;19.37;50.38;101051.03;5030865;28;20506;-60
2022/03/28 08:36:03;;;;;;;5.00;3.37;;;;;;;19.36;50.64;101060.84;5029795;28;20180;-60
2022/03/28 08:38:28;;;;;;;4.00;3.03;;;;;;;19.33;50.62;101055.88;5033677;28;20211;-60
2022/03/28 08:40:54;;;;;;;4.80;3.20;;;;;;;19.36;50.36;101055.09;5034910;28;20218;-60
2022/03/28 08:43:21;;;;;;;5.87;3.17;;;;;;;19.36;50.52;101055.09;5034548;28;20646;-60
2022/03/28 08:45:48;;;;;;;4.43;3.03;;;;;;;19.34;50.55;101051.78;5034946;28;20660;-60
2022/03/28 08:48:14;;;;;;;4.10;3.33;;;;;;;19.34;50.71;101054.66;5032536;28;20547;-60
2022/03/28 08:50:43;;;;;;;4.60;3.03;;;;;;;19.35;50.35;101050.59;5014106;28;20411;-60
2022/03/28 08:53:09;;;;;;;8.13;2.50;;;;;;;19.37;50.60;101056.75;5032508;28;20264;-60
2022/03/28 08:55:35;;;;;;;5.00;3.07;;;;;;;19.36;50.49;101055.09;5031154;28;20426;-60
2022/03/28 08:58:00;;;;;;;3.40;2.73;;;;;;;19.34;50.96;101057.53;5033278;28;20204;-60
2022/03/28 09:00:26;;;;;;;4.70;3.17;;;;;;;19.33;50.66;101047.28;5033159;28;20578;-60
2022/03/28 09:02:55;;;;;;;3.77;2.53;;;;;;;19.35;50.51;101044.84;5032914;28;20188;-60
2022/03/28 09:05:31;;;;;;;5.37;3.33;;;;;;;19.34;50.66;101046.06;5015304;28;20546;-60
2022/03/28 09:07:58;;;;;;;4.53;2.87;;;;;;;19.34;50.51;101046.06;5033192;28;20485;-60
2022/03/28 09:10:24;;;;;;;4.10;2.70;;;;;;;19.34;50.45;101034.63;5032995;28;20442;-60
2022/03/28 09:13:09;;;;;;;4.93;3.37;;;;;;;19.37;50.42;101033.03;5015119;28;20461;-60
2022/03/28 09:15:47;;;;;;;5.20;3.50;;;;;;;19.34;50.54;101023.16;5031075;28;20536;-60
2022/03/28 09:18:29;;;;;;;3.57;2.70;;;;;;;19.34;50.59;101023.16;5032427;28;20537;-60
2022/03/28 09:21:03;;;;;;;5.10;3.50;;;;;;;19.35;50.54;101018.25;5031751;28;20395;-60
2022/03/28 09:23:43;;;;;;;3.90;2.70;;;;;;;19.37;50.61;101015.88;5028224;28;20423;-60
2022/03/28 09:26:20;;;;;;;4.03;3.10;;;;;;;19.36;50.55;101011.34;5031742;28;20450;-60
2022/03/28 09:28:56;;;;;;;4.60;3.07;;;;;;;19.35;50.54;100996.19;5032870;28;20429;-60
2022/03/28 09:31:35;;;;;;;3.73;2.80;;;;;;;19.34;50.49;100994.53;5032762;28;20433;-60
2022/03/28 09:34:09;;;;;;;5.07;3.47;;;;;;;19.34;50.45;101000.25;5032569;28;20827;-60
2022/03/28 09:36:37;;;;;;;5.43;3.17;;;;;;;19.35;50.46;101004.78;5031387;28;20895;-60
2022/03/28 09:39:04;;;;;;;4.60;3.23;;;;;;;19.35;50.51;101003.94;5032188;28;21131;-60
2022/03/28 09:41:30;;;;;;;4.80;2.93;;;;;;;19.36;50.30;100997.84;5032443;28;20411;-60
2022/03/28 09:43:55;;;;;;;7.20;2.63;;;;;;;19.35;50.49;100990.47;5032619;28;20838;-60
2022/03/28 09:46:28;;;;;;;4.40;2.97;;;;;;;19.35;50.55;100990.47;4992338;28;1141998;-60
2022/03/28 09:48:54;;;;;;;4.03;2.67;;;;;;;19.37;50.61;100984.38;5033097;28;20181;-60
2022/03/28 09:51:23;;;;;;;4.43;3.20;;;;;;;19.38;50.44;100984.00;5033525;28;20427;-60
2022/03/28 09:53:48;;;;;;;4.63;3.10;;;;;;;19.38;50.40;100983.16;5032958;28;20411;-60
2022/03/28 09:56:14;;;;;;;5.27;3.30;;;;;;;19.36;50.36;100979.84;5031569;28;20429;-60
2022/03/28 09:58:56;;;;;;;4.80;3.30;;;;;;;19.37;50.38;100973.72;5031339;28;20168;-60
2022/03/28 10:01:35;;;;;;;4.73;3.03;;;;;;;19.37;50.58;100968.00;5032639;28;20250;-60
2022/03/28 10:04:05;;;;;;;4.50;3.23;;;;;;;19.35;50.52;100966.72;5033539;28;20506;-60
2022/03/28 10:06:34;;;;;;;3.93;2.90;;;;;;;19.37;50.63;100965.13;5033586;28;20419;-60
2022/03/28 10:08:59;;;;;;;4.20;3.27;;;;;;;19.38;50.59;100958.22;5031883;28;20441;-60
2022/03/28 10:11:26;;;;;;;4.90;3.03;;;;;;;19.39;50.23;100962.75;5033098;28;20423;-60
2022/03/28 10:13:52;;;;;;;3.57;2.50;;;;;;;19.37;50.51;100959.41;5032520;28;20180;-60
2022/03/28 10:16:17;;;;;;;3.17;2.40;;;;;;;19.35;50.35;100950.38;5031531;28;20438;-60
2022/03/28 10:18:45;;;;;;;4.97;3.10;;;;;;;19.37;50.53;100950.00;5032574;28;20411;-60
2022/03/28 10:21:15;;;;;;;4.27;2.63;;;;;;;19.38;50.24;100935.31;5031579;28;20234;-60
2022/03/28 10:24:03;;;;;;;4.67;3.00;;;;;;;19.38;50.21;100938.19;5023558;28;20810;-60
2022/03/28 10:26:31;;;;;;;4.03;2.83;;;;;;;19.35;50.46;100930.31;5014903;28;20488;-60
2022/03/28 10:29:13;;;;;;;4.17;2.67;;;;;;;19.37;50.43;100933.63;5014881;28;20427;-60
2022/03/28 10:32:00;;;;;;;4.57;2.97;;;;;;;19.35;50.60;100926.63;5033113;28;20419;-60
2022/03/28 10:34:53;;;;;;;4.60;3.20;;;;;;;19.38;50.37;100925.91;5032272;28;20423;-60
2022/03/28 10:37:40;;;;;;;4.77;3.33;;;;;;;19.39;50.42;100919.81;5032470;28;20466;-60
2022/03/28 10:40:12;;;;;;;3.80;2.70;;;;;;;19.39;50.36;100916.09;5032771;28;20517;-60
2022/03/28 10:42:38;;;;;;;4.10;2.83;;;;;;;19.39;50.28;100916.94;5032577;28;20450;-60
2022/03/28 10:45:05;;;;;;;4.23;3.10;;;;;;;19.40;50.74;100907.13;5032215;28;20443;-60
2022/03/28 10:47:43;;;;;;;4.67;2.87;;;;;;;19.38;50.61;100909.56;5032004;28;20485;-60
2022/03/28 10:50:12;;;;;;;3.83;2.60;;;;;;;19.34;50.61;100896.34;5031379;28;21210;-60
2022/03/28 10:52:38;;;;;;;4.20;2.70;;;;;;;19.35;50.59;100895.97;5032509;28;20419;-60
2022/03/28 10:55:08;;;;;;;5.73;3.50;;;;;;;19.37;50.43;100895.59;5030199;28;20431;-60
2022/03/28 10:57:34;;;;;;;3.73;2.80;;;;;;;19.37;50.53;100890.69;5032236;28;20455;-60
2022/03/28 11:00:01;;;;;;;4.67;2.50;;;;;;;19.38;50.37;100891.53;5030109;28;20435;-60
2022/03/28 11:02:30;;;;;;;4.70;3.13;;;;;;;19.38;50.43;100886.66;5032311;28;21032;-60
2022/03/28 11:04:55;;;;;;;3.27;2.20;;;;;;;19.42;50.56;100878.13;5031825;28;20411;-60
2022/03/28 11:07:21;;;;;;;5.80;3.37;;;;;;;19.38;50.50;100875.19;5014305;28;20446;-60
2022/03/28 11:10:06;;;;;;;3.50;2.70;;;;;;;19.39;50.37;100876.84;5032001;28;20203;-60
2022/03/28 11:12:39;;;;;;;3.97;2.40;;;;;;;19.40;50.39;100867.06;5031763;28;20260;-60
2022/03/28 11:15:12;;;;;;;3.47;2.53;;;;;;;19.40;50.39;100860.47;5013900;28;20894;-60
2022/03/28 11:17:38;;;;;;;4.60;2.80;;;;;;;19.41;50.34;100857.25;5032031;28;20459;-60
2022/03/28 11:20:11;;;;;;;4.17;2.77;;;;;;;19.41;50.43;100853.56;5031661;28;20458;-60
2022/03/28 11:22:47;;;;;;;4.23;2.83;;;;;;;19.42;50.20;100847.44;5013338;28;20262;-60